createdAt,value
2022-08-19T00:01:07.749Z,13.8
2022-08-19T00:03:07.755Z,14
2022-08-19T00:05:07.761Z,13.6
2022-08-19T00:07:07.765Z,14
2022-08-19T00:09:07.779Z,13.6
2022-08-19T00:11:07.770Z,13.5
2022-08-19T00:13:07.780Z,13.4
2022-08-19T00:15:07.786Z,14.2
2022-08-19T00:17:07.789Z,13.4
2022-08-19T00:19:07.836Z,14.3
2022-08-19T00:21:07.793Z,14.4
2022-08-19T00:23:07.803Z,13.8
2022-08-19T00:25:07.808Z,13.9
2022-08-19T00:27:25.499Z,13.7
2022-08-19T00:29:07.822Z,13.5
2022-08-19T00:31:07.822Z,13.4
2022-08-19T00:33:07.832Z,12.9
2022-08-19T00:35:07.838Z,12.7
2022-08-19T00:37:07.838Z,13.3
2022-08-19T00:39:07.849Z,13.3
2022-08-19T00:41:07.852Z,12.4
2022-08-19T00:43:07.859Z,12.7
2022-08-19T00:45:07.863Z,12.7
2022-08-19T00:47:07.873Z,12.7
2022-08-19T00:49:07.876Z,12.9
2022-08-19T00:51:07.880Z,12.5
2022-08-19T00:53:07.888Z,13.1
2022-08-19T00:55:08.152Z,12.9
2022-08-19T00:57:07.900Z,12.5
2022-08-19T00:59:07.903Z,12.4
2022-08-19T01:01:07.920Z,12.4
2022-08-19T01:03:07.978Z,12.4
2022-08-19T01:05:07.926Z,12.5
2022-08-19T01:07:07.929Z,12.4
2022-08-19T01:09:07.935Z,12.7
2022-08-19T01:11:07.935Z,12.8
2022-08-19T01:13:07.938Z,11.9
2022-08-19T01:15:07.942Z,12.7
2022-08-19T01:17:07.948Z,12.9
2022-08-19T01:19:07.950Z,11.8
2022-08-19T01:21:07.960Z,11.8
2022-08-19T01:23:07.961Z,12.1
2022-08-19T01:25:08.932Z,11.8
2022-08-19T01:27:07.979Z,12
2022-08-19T01:29:07.986Z,11.9
2022-08-19T01:31:08.337Z,11.8
2022-08-19T01:33:07.995Z,11.8
2022-08-19T01:35:08.001Z,11.8
2022-08-19T01:37:08.001Z,12.4
2022-08-19T01:39:08.011Z,12.2
2022-08-19T01:41:10.829Z,12
2022-08-19T01:43:08.020Z,12
2022-08-19T01:45:08.028Z,12
2022-08-19T01:47:08.032Z,12.8
2022-08-19T01:49:08.035Z,12.7
2022-08-19T01:51:08.183Z,12.5
2022-08-19T01:53:08.068Z,12.3
2022-08-19T01:55:08.049Z,12.3
2022-08-19T01:57:08.059Z,12.9
2022-08-19T01:59:08.063Z,12.6
2022-08-19T02:01:08.096Z,13.1
2022-08-19T02:03:08.070Z,12.7
2022-08-19T02:05:08.078Z,12.7
2022-08-19T02:07:08.080Z,13
2022-08-19T02:09:08.080Z,12.9
2022-08-19T02:11:08.087Z,12.4
2022-08-19T02:13:08.086Z,12.6
2022-08-19T02:15:08.093Z,12.7
2022-08-19T02:17:08.093Z,12.8
2022-08-19T02:19:08.100Z,12.3
2022-08-19T02:21:08.104Z,12.8
2022-08-19T02:23:13.670Z,13.1
2022-08-19T02:25:08.109Z,13
2022-08-19T02:27:08.112Z,12.4
2022-08-19T02:29:08.119Z,12.4
2022-08-19T02:31:08.121Z,12.7
2022-08-19T02:33:08.125Z,13.1
2022-08-19T02:35:12.391Z,12.9
2022-08-19T02:37:08.126Z,12.9
2022-08-19T02:39:08.134Z,13
2022-08-19T02:41:08.139Z,12.3
2022-08-19T02:43:08.135Z,13.1
2022-08-19T02:45:08.140Z,13.4
2022-08-19T02:47:08.137Z,13.2
2022-08-19T02:49:08.138Z,13.7
2022-08-19T02:51:08.136Z,13.3
2022-08-19T02:53:08.136Z,13.4
2022-08-19T02:55:08.137Z,13.2
2022-08-19T02:57:08.147Z,12.7
2022-08-19T02:59:08.142Z,12.6
2022-08-19T03:01:08.179Z,13
2022-08-19T03:03:08.150Z,12.6
2022-08-19T03:05:08.151Z,12.5
2022-08-19T03:07:09.316Z,12.1
2022-08-19T03:09:08.162Z,12.4
2022-08-19T03:11:08.157Z,11.9
2022-08-19T03:13:08.248Z,12.1
2022-08-19T03:15:08.172Z,11.8
2022-08-19T03:17:08.177Z,12.2
2022-08-19T03:19:08.181Z,12.4
2022-08-19T03:21:08.198Z,12.4
2022-08-19T03:23:08.207Z,12.4
2022-08-19T03:25:08.216Z,12
2022-08-19T03:27:08.224Z,12.3
2022-08-19T03:29:08.604Z,12.7
2022-08-19T03:31:18.530Z,12.5
2022-08-19T03:33:08.241Z,12.8
2022-08-19T03:35:08.250Z,12.8
2022-08-19T03:37:08.255Z,12.5
2022-08-19T03:39:08.264Z,12.4
2022-08-19T03:41:08.266Z,12.1
2022-08-19T03:43:08.275Z,12.4
2022-08-19T03:45:08.279Z,12.4
2022-08-19T03:47:08.284Z,12.4
2022-08-19T03:49:08.295Z,12.5
2022-08-19T03:51:08.299Z,12.4
2022-08-19T03:53:08.313Z,12.5
2022-08-19T03:55:08.312Z,12.2
2022-08-19T03:57:08.323Z,11.7
2022-08-19T03:59:08.325Z,11.7
2022-08-19T04:01:08.357Z,11.3
2022-08-19T04:03:08.342Z,11.8
2022-08-19T04:05:08.352Z,11.2
2022-08-19T04:07:08.357Z,11.2
2022-08-19T04:09:08.368Z,11.5
2022-08-19T04:11:08.372Z,11.2
2022-08-19T04:13:08.377Z,11.5
2022-08-19T04:15:08.385Z,11.1
2022-08-19T04:17:08.395Z,11.4
2022-08-19T04:19:08.404Z,10.9
2022-08-19T04:21:08.414Z,11.3
2022-08-19T04:23:08.420Z,10.7
2022-08-19T04:25:08.429Z,11
2022-08-19T04:27:08.442Z,10.9
2022-08-19T04:29:12.270Z,10.6
2022-08-19T04:31:08.457Z,10.7
2022-08-19T04:33:08.466Z,11.5
2022-08-19T04:35:16.547Z,10.7
2022-08-19T04:37:08.468Z,11
2022-08-19T04:39:08.472Z,10.5
2022-08-19T04:41:08.483Z,10.6
2022-08-19T04:43:08.489Z,10.4
2022-08-19T04:45:09.348Z,10.3
2022-08-19T04:47:11.126Z,10.1
2022-08-19T04:49:10.651Z,10
2022-08-19T04:51:08.525Z,9.7
2022-08-19T04:53:08.534Z,10
2022-08-19T04:55:08.542Z,10.2
2022-08-19T04:57:08.633Z,9.7
2022-08-19T04:59:08.558Z,9.8
2022-08-19T05:01:08.606Z,9.5
2022-08-19T05:03:08.580Z,9.5
2022-08-19T05:05:08.589Z,9.6
2022-08-19T05:07:08.588Z,9.4
2022-08-19T05:09:08.605Z,9.3
2022-08-19T05:11:08.613Z,9.4
2022-08-19T05:13:08.616Z,9.4
2022-08-19T05:15:08.621Z,9.2
2022-08-19T05:17:26.413Z,9.1
2022-08-19T05:19:08.642Z,9.2
2022-08-19T05:21:08.649Z,8.7
2022-08-19T05:23:12.879Z,8.7
2022-08-19T05:25:12.907Z,9.3
2022-08-19T05:27:08.666Z,9.2
2022-08-19T05:29:08.675Z,9.2
2022-08-19T05:31:08.676Z,9.3
2022-08-19T05:33:08.677Z,9.3
2022-08-19T05:35:08.689Z,9.1
2022-08-19T05:37:08.700Z,9.4
2022-08-19T05:39:09.082Z,9.9
2022-08-19T05:41:08.721Z,9.5
2022-08-19T05:43:08.730Z,9.4
2022-08-19T05:45:08.750Z,9.4
2022-08-19T05:47:08.748Z,9.1
2022-08-19T05:49:08.765Z,9
2022-08-19T05:51:08.768Z,9.4
2022-08-19T05:53:08.782Z,9.2
2022-08-19T05:55:08.793Z,8.7
2022-08-19T05:57:08.798Z,8.5
2022-08-19T05:59:08.817Z,8.5
2022-08-19T06:01:08.820Z,8.2
2022-08-19T06:03:09.697Z,9
2022-08-19T06:05:08.837Z,8
2022-08-19T06:07:12.451Z,8.6
2022-08-19T06:09:08.850Z,8.9
2022-08-19T06:11:08.859Z,9.2
2022-08-19T06:13:08.862Z,8.8
2022-08-19T06:15:08.875Z,9.1
2022-08-19T06:17:08.878Z,8.9
2022-08-19T06:19:08.887Z,8.8
2022-08-19T06:21:08.891Z,8.8
2022-08-19T06:23:08.898Z,9
2022-08-19T06:25:08.904Z,8.8
2022-08-19T06:27:08.915Z,8.6
2022-08-19T06:29:08.927Z,8.8
2022-08-19T06:31:08.936Z,8.3
2022-08-19T06:33:08.948Z,8.8
2022-08-19T06:35:08.959Z,9.2
2022-08-19T06:37:08.962Z,9.4
2022-08-19T06:39:08.981Z,9.4
2022-08-19T06:41:08.982Z,9.5
2022-08-19T06:43:09.527Z,9.2
2022-08-19T06:45:09.389Z,9.3
2022-08-19T06:47:09.565Z,9.7
2022-08-19T06:49:09.029Z,9.3
2022-08-19T06:51:09.035Z,9.8
2022-08-19T06:53:09.047Z,9.9
2022-08-19T06:55:09.061Z,9.7
2022-08-19T06:57:09.096Z,9.5
2022-08-19T06:59:09.154Z,10
2022-08-19T07:01:09.249Z,10.2
2022-08-19T07:03:09.539Z,9.8
2022-08-19T07:05:09.116Z,10.3
2022-08-19T07:07:19.586Z,10.5
2022-08-19T07:09:09.130Z,10.1
2022-08-19T07:11:09.228Z,10.4
2022-08-19T07:13:09.144Z,10.2
2022-08-19T07:15:09.151Z,10
2022-08-19T07:17:09.154Z,10.1
2022-08-19T07:19:10.886Z,10.1
2022-08-19T07:21:09.357Z,10.1
2022-08-19T07:23:09.521Z,10.2
2022-08-19T07:25:09.340Z,10
2022-08-19T07:27:10.349Z,9.4
2022-08-19T07:29:09.218Z,9.3
2022-08-19T07:31:09.231Z,9.3
2022-08-19T07:33:09.249Z,9
2022-08-19T07:35:09.256Z,10.3
2022-08-19T07:37:09.269Z,10
2022-08-19T07:39:09.277Z,9.4
2022-08-19T07:41:09.288Z,9
2022-08-19T07:43:12.305Z,9.7
2022-08-19T07:45:09.312Z,9.2
2022-08-19T07:47:09.694Z,9.6
2022-08-19T07:49:09.339Z,9.6
2022-08-19T07:51:09.343Z,9.1
2022-08-19T07:53:09.363Z,9.3
2022-08-19T07:55:11.423Z,9.5
2022-08-19T07:57:09.376Z,9
2022-08-19T07:59:09.389Z,8.8
2022-08-19T08:01:09.400Z,8.5
2022-08-19T08:03:09.399Z,8.9
2022-08-19T08:05:09.404Z,8.7
2022-08-19T08:07:09.400Z,8.9
2022-08-19T08:09:09.471Z,8.8
2022-08-19T08:11:09.426Z,8.9
2022-08-19T08:13:10.987Z,9
2022-08-19T08:15:12.574Z,9
2022-08-19T08:17:10.838Z,8.6
2022-08-19T08:19:14.774Z,9.1
2022-08-19T08:21:09.490Z,8.6
2022-08-19T08:23:09.502Z,8.3
2022-08-19T08:25:09.515Z,8.2
2022-08-19T08:27:11.247Z,8.6
2022-08-19T08:29:11.517Z,8.3
2022-08-19T08:31:09.900Z,8.3
2022-08-19T08:33:09.593Z,8.3
2022-08-19T08:35:09.577Z,8.6
2022-08-19T08:37:09.595Z,8.4
2022-08-19T08:39:09.611Z,8.1
2022-08-19T08:41:09.622Z,8.4
2022-08-19T08:43:10.961Z,8.2
2022-08-19T08:45:09.651Z,8.3
2022-08-19T08:47:09.662Z,8
2022-08-19T08:49:09.847Z,8.1
2022-08-19T08:51:09.688Z,7.9
2022-08-19T08:53:09.687Z,7.9
2022-08-19T08:55:10.361Z,7.8
2022-08-19T08:57:09.691Z,8.2
2022-08-19T08:59:09.704Z,8.3
2022-08-19T09:01:09.747Z,8.3
2022-08-19T09:03:09.730Z,8.1
2022-08-19T09:05:09.738Z,8.2
2022-08-19T09:07:18.289Z,8
2022-08-19T09:09:11.591Z,8.4
2022-08-19T09:11:09.784Z,8.1
2022-08-19T09:13:09.793Z,7.8
2022-08-19T09:15:09.804Z,8.1
2022-08-19T09:17:09.812Z,7.9
2022-08-19T09:19:09.833Z,7.7
2022-08-19T09:21:09.841Z,8
2022-08-19T09:23:09.854Z,7.8
2022-08-19T09:25:09.868Z,7.6
2022-08-19T09:27:18.321Z,7.8
2022-08-19T09:29:09.896Z,8
2022-08-19T09:31:09.918Z,7.5
2022-08-19T09:33:09.922Z,7.5
2022-08-19T09:35:10.143Z,7.6
2022-08-19T09:37:09.952Z,7
2022-08-19T09:39:14.969Z,7.2
2022-08-19T09:41:09.980Z,7.3
2022-08-19T09:43:12.976Z,7.9
2022-08-19T09:45:10.210Z,7.5
2022-08-19T09:47:10.026Z,7.8
2022-08-19T09:49:10.036Z,7.5
2022-08-19T09:51:11.744Z,7.5
2022-08-19T09:53:10.039Z,7.3
2022-08-19T09:55:10.052Z,7.6
2022-08-19T09:57:10.064Z,7.3
2022-08-19T09:59:10.080Z,7.1
2022-08-19T10:01:10.116Z,7
2022-08-19T10:03:10.106Z,6.9
2022-08-19T10:05:10.122Z,6.9
2022-08-19T10:07:10.132Z,6.6
2022-08-19T10:09:10.144Z,6.1
2022-08-19T10:11:27.138Z,6.3
2022-08-19T10:13:10.167Z,6.8
2022-08-19T10:15:10.183Z,6.7
2022-08-19T10:17:17.613Z,6.3
2022-08-19T10:19:10.211Z,6.5
2022-08-19T10:21:11.481Z,6.8
2022-08-19T10:23:10.456Z,6.3
2022-08-19T10:25:10.248Z,6.5
2022-08-19T10:27:10.267Z,6.3
2022-08-19T10:29:10.277Z,6
2022-08-19T10:31:10.290Z,6
2022-08-19T10:33:10.903Z,6.2
2022-08-19T10:35:10.315Z,6.1
2022-08-19T10:37:10.860Z,6.2
2022-08-19T10:39:10.342Z,6.3
2022-08-19T10:41:10.344Z,6.8
2022-08-19T10:43:10.349Z,6.3
2022-08-19T10:45:10.355Z,6
2022-08-19T10:47:17.455Z,5.9
2022-08-19T10:49:10.374Z,6.9
2022-08-19T10:51:10.387Z,6.2
2022-08-19T10:53:10.393Z,6.3
2022-08-19T10:55:10.399Z,6.3
2022-08-19T10:57:10.404Z,6.5
2022-08-19T10:59:10.416Z,6.6
2022-08-19T11:01:10.442Z,6.7
2022-08-19T11:03:10.431Z,6.6
2022-08-19T11:05:12.551Z,6.2
2022-08-19T11:07:10.447Z,7.2
2022-08-19T11:09:10.456Z,10.6
2022-08-19T11:11:10.461Z,7.1
2022-08-19T11:13:10.467Z,6.2
2022-08-19T11:15:10.584Z,6.5
2022-08-19T11:17:10.483Z,7.3
2022-08-19T11:19:10.492Z,8.4
2022-08-19T11:21:10.507Z,6.5
2022-08-19T11:23:10.640Z,29.1
2022-08-19T11:25:10.537Z,7.9
2022-08-19T11:27:10.531Z,6.3
2022-08-19T11:29:10.536Z,9
2022-08-19T11:31:10.545Z,6.3
2022-08-19T11:33:10.549Z,6
2022-08-19T11:35:10.606Z,5.2
2022-08-19T11:37:10.564Z,5.4
2022-08-19T11:39:10.572Z,7.6
2022-08-19T11:41:10.576Z,6.1
2022-08-19T11:43:10.589Z,5.6
2022-08-19T11:45:10.593Z,5.4
2022-08-19T11:47:10.602Z,5.3
2022-08-19T11:49:13.746Z,6.1
2022-08-19T11:51:10.618Z,6.2
2022-08-19T11:53:10.623Z,6.5
2022-08-19T11:55:10.636Z,6
2022-08-19T11:57:10.650Z,5.8
2022-08-19T11:59:14.563Z,6.2
2022-08-19T12:01:10.663Z,5.6
2022-08-19T12:03:10.669Z,5.4
2022-08-19T12:05:12.759Z,5.8
2022-08-19T12:07:10.691Z,5.6
2022-08-19T12:09:10.709Z,6
2022-08-19T12:11:10.710Z,6.4
2022-08-19T12:13:10.719Z,5.7
2022-08-19T12:15:10.722Z,5.4
2022-08-19T12:17:10.734Z,5.5
2022-08-19T12:19:10.745Z,4.9
2022-08-19T12:21:10.751Z,5.2
2022-08-19T12:23:10.760Z,5
2022-08-19T12:25:10.761Z,5.5
2022-08-19T12:27:12.696Z,5
2022-08-19T12:29:10.770Z,4.7
2022-08-19T12:31:10.782Z,5
2022-08-19T12:33:10.785Z,4.7
2022-08-19T12:35:10.793Z,5.1
2022-08-19T12:37:10.803Z,5.3
2022-08-19T12:39:10.815Z,4.7
2022-08-19T12:41:10.828Z,5.1
2022-08-19T12:43:10.835Z,4.6
2022-08-19T12:45:10.839Z,4.5
2022-08-19T12:47:10.851Z,5.2
2022-08-19T12:49:15.340Z,4.9
2022-08-19T12:51:10.869Z,4.2
2022-08-19T12:53:10.881Z,4.4
2022-08-19T12:55:10.891Z,4.5
2022-08-19T12:57:10.904Z,3.9
2022-08-19T12:59:10.915Z,4.2
2022-08-19T13:01:11.004Z,4.2
2022-08-19T13:03:10.932Z,4.4
2022-08-19T13:05:10.967Z,4.4
2022-08-19T13:07:10.955Z,4.5
2022-08-19T13:09:10.965Z,4.2
2022-08-19T13:11:10.974Z,4.5
2022-08-19T13:13:10.980Z,4.3
2022-08-19T13:15:11.474Z,4.5
2022-08-19T13:17:11.000Z,4.2
2022-08-19T13:19:11.002Z,4.3
2022-08-19T13:21:11.004Z,4.3
2022-08-19T13:23:11.015Z,4.4
2022-08-19T13:25:11.025Z,4.3
2022-08-19T13:27:11.038Z,4.2
2022-08-19T13:29:11.042Z,4.5
2022-08-19T13:31:11.058Z,4.3
2022-08-19T13:33:11.063Z,4.3
2022-08-19T13:35:13.765Z,4
2022-08-19T13:37:11.086Z,4.3
2022-08-19T13:39:11.123Z,4.4
2022-08-19T13:41:14.740Z,4.9
2022-08-19T13:43:13.644Z,4.9
2022-08-19T13:45:11.145Z,5.4
2022-08-19T13:47:11.149Z,5
2022-08-19T13:49:11.156Z,4.9
2022-08-19T13:51:11.158Z,5
2022-08-19T13:53:11.179Z,4.9
2022-08-19T13:55:11.167Z,4.9
2022-08-19T13:57:11.191Z,4.7
2022-08-19T13:59:11.178Z,5.1
2022-08-19T14:01:11.207Z,4.8
2022-08-19T14:03:11.185Z,4.9
2022-08-19T14:05:11.184Z,4.7
2022-08-19T14:07:11.198Z,5
2022-08-19T14:09:11.203Z,4.8
2022-08-19T14:11:11.199Z,4.8
2022-08-19T14:13:11.203Z,5
2022-08-19T14:15:11.205Z,5
2022-08-19T14:17:11.211Z,4.9
2022-08-19T14:19:11.217Z,4.6
2022-08-19T14:21:11.223Z,4.8
2022-08-19T14:23:11.225Z,4.9
2022-08-19T14:25:11.230Z,4.8
2022-08-19T14:27:11.231Z,4.7
2022-08-19T14:29:11.243Z,4.9
2022-08-19T14:31:11.239Z,4.7
2022-08-19T14:33:11.253Z,4.7
2022-08-19T14:35:11.257Z,4.6
2022-08-19T14:37:14.415Z,4.8
2022-08-19T14:39:11.265Z,4.7
2022-08-19T14:41:11.280Z,4.8
2022-08-19T14:43:11.276Z,4.9
2022-08-19T14:45:11.266Z,5
2022-08-19T14:47:11.276Z,4.4
2022-08-19T14:49:11.282Z,4.6
2022-08-19T14:51:11.285Z,4.8
2022-08-19T14:53:12.615Z,4.7
2022-08-19T14:55:11.301Z,4.6
2022-08-19T14:57:11.304Z,5.5
2022-08-19T14:59:11.303Z,6.2
2022-08-19T15:01:11.311Z,5.2
2022-08-19T15:03:11.309Z,4.8
2022-08-19T15:05:11.315Z,5.9
2022-08-19T15:07:11.591Z,5.1
2022-08-19T15:09:11.313Z,5
2022-08-19T15:11:11.324Z,4.7
2022-08-19T15:13:11.326Z,4.7
2022-08-19T15:15:11.336Z,4.9
2022-08-19T15:17:11.340Z,5.1
2022-08-19T15:19:11.351Z,4.8
2022-08-19T15:21:11.360Z,4.9
2022-08-19T15:23:11.357Z,4.8
2022-08-19T15:25:11.630Z,4.7
2022-08-19T15:27:11.375Z,5.1
2022-08-19T15:29:11.378Z,4.9
2022-08-19T15:31:17.069Z,4.5
2022-08-19T15:33:11.386Z,4.4
2022-08-19T15:35:11.393Z,4.6
2022-08-19T15:37:11.398Z,4.6
2022-08-19T15:39:11.405Z,4.7
2022-08-19T15:41:11.415Z,4.5
2022-08-19T15:43:11.423Z,4.6
2022-08-19T15:45:11.424Z,4.8
2022-08-19T15:47:11.425Z,4.4
2022-08-19T15:49:11.427Z,4.7
2022-08-19T15:51:11.431Z,4.8
2022-08-19T15:53:11.443Z,4.4
2022-08-19T15:55:11.435Z,4.8
2022-08-19T15:57:11.438Z,4.8
2022-08-19T15:59:11.458Z,4.6
2022-08-19T16:01:12.640Z,4.4
2022-08-19T16:03:11.469Z,4.5
2022-08-19T16:05:11.464Z,4.5
2022-08-19T16:07:11.465Z,4.3
2022-08-19T16:09:11.462Z,4.3
2022-08-19T16:11:11.470Z,4.3
2022-08-19T16:13:11.472Z,4.4
2022-08-19T16:15:11.480Z,4.5
2022-08-19T16:17:11.479Z,4.4
2022-08-19T16:19:11.994Z,4.5
2022-08-19T16:21:11.480Z,4.4
2022-08-19T16:23:11.482Z,4.4
2022-08-19T16:25:11.484Z,4.2
2022-08-19T16:27:11.482Z,4.7
2022-08-19T16:29:12.296Z,4.4
2022-08-19T16:31:11.497Z,4.2
2022-08-19T16:33:11.498Z,4.7
2022-08-19T16:35:11.503Z,4.7
2022-08-19T16:37:11.495Z,4.6
2022-08-19T16:39:11.498Z,4.7
2022-08-19T16:41:11.507Z,4.6
2022-08-19T16:43:11.515Z,4.8
2022-08-19T16:45:11.517Z,4.6
2022-08-19T16:47:11.525Z,4.8
2022-08-19T16:49:11.523Z,4.7
2022-08-19T16:51:11.517Z,4.7
2022-08-19T16:53:11.527Z,5
2022-08-19T16:55:11.532Z,4.6
2022-08-19T16:57:11.997Z,4.4
2022-08-19T16:59:11.536Z,4.6
2022-08-19T17:01:11.601Z,4.7
2022-08-19T17:03:14.836Z,4.9
2022-08-19T17:05:11.546Z,4.4
2022-08-19T17:07:11.549Z,4.6
2022-08-19T17:09:11.540Z,5
2022-08-19T17:11:17.977Z,4.6
2022-08-19T17:13:11.556Z,5
2022-08-19T17:15:11.559Z,5.2
2022-08-19T17:17:11.565Z,5.6
2022-08-19T17:19:11.564Z,5.5
2022-08-19T17:21:11.573Z,5.2
2022-08-19T17:23:14.470Z,5.5
2022-08-19T17:25:11.577Z,5.2
2022-08-19T17:27:11.577Z,5.5
2022-08-19T17:29:11.584Z,5.3
2022-08-19T17:31:11.590Z,5.2
2022-08-19T17:33:11.602Z,5.5
2022-08-19T17:35:11.600Z,5.7
2022-08-19T17:37:11.611Z,5.7
2022-08-19T17:39:11.612Z,5.5
2022-08-19T17:41:11.725Z,5.8
2022-08-19T17:43:11.619Z,5.9
2022-08-19T17:45:11.619Z,5.9
2022-08-19T17:47:11.620Z,6
2022-08-19T17:49:11.624Z,6.2
2022-08-19T17:51:11.631Z,5.8
2022-08-19T17:53:11.636Z,6
2022-08-19T17:55:11.646Z,6
2022-08-19T17:57:11.647Z,6
2022-08-19T17:59:13.757Z,6
2022-08-19T18:01:11.673Z,6
2022-08-19T18:03:11.654Z,6.1
2022-08-19T18:05:11.656Z,6.1
2022-08-19T18:07:11.666Z,6.2
2022-08-19T18:09:11.667Z,6.6
2022-08-19T18:11:11.677Z,6.5
2022-08-19T18:13:17.531Z,6.2
2022-08-19T18:15:11.693Z,6.5
2022-08-19T18:17:11.686Z,6.7
2022-08-19T18:19:11.694Z,6.5
2022-08-19T18:21:11.699Z,6.8
2022-08-19T18:23:41.542Z,6.6
2022-08-19T18:25:11.704Z,6.9
2022-08-19T18:27:11.716Z,7
2022-08-19T18:29:11.706Z,7.8
2022-08-19T18:31:11.716Z,7.8
2022-08-19T18:33:11.727Z,8.5
2022-08-19T18:35:11.734Z,8.4
2022-08-19T18:37:11.733Z,8.8
2022-08-19T18:39:11.740Z,9
2022-08-19T18:41:11.748Z,9.2
2022-08-19T18:43:11.749Z,9.9
2022-08-19T18:45:11.756Z,10.3
2022-08-19T18:47:11.770Z,10.5
2022-08-19T18:49:11.767Z,11.3
2022-08-19T18:51:11.779Z,11.8
2022-08-19T18:53:11.793Z,12.1
2022-08-19T18:55:11.792Z,11.9
2022-08-19T18:57:11.796Z,12.5
2022-08-19T18:59:11.799Z,14.1
2022-08-19T19:01:11.948Z,13.7
2022-08-19T19:03:11.812Z,13.5
2022-08-19T19:05:11.813Z,13.7
2022-08-19T19:07:11.821Z,14.1
2022-08-19T19:09:11.826Z,14.7
2022-08-19T19:11:11.830Z,14.7
2022-08-19T19:13:11.836Z,15
2022-08-19T19:15:11.841Z,14.8
2022-08-19T19:17:11.849Z,14.3
2022-08-19T19:19:11.854Z,16.9
2022-08-19T19:21:11.856Z,17.4
2022-08-19T19:23:11.862Z,16.9
2022-08-19T19:25:11.873Z,17.5
2022-08-19T19:27:11.874Z,18.2
2022-08-19T19:29:11.883Z,16.9
2022-08-19T19:31:11.894Z,16.6
2022-08-19T19:33:11.899Z,15.7
2022-08-19T19:35:11.907Z,15.8
2022-08-19T19:37:11.918Z,16.4
2022-08-19T19:39:11.919Z,15.7
2022-08-19T19:41:11.933Z,16.2
2022-08-19T19:43:11.940Z,15.7
2022-08-19T19:45:11.944Z,15.4
2022-08-19T19:47:11.958Z,15.3
2022-08-19T19:49:11.962Z,14.5
2022-08-19T19:51:11.976Z,14.5
2022-08-19T19:53:11.981Z,14.8
2022-08-19T19:55:11.990Z,15.2
2022-08-19T19:57:11.997Z,15
2022-08-19T19:59:11.995Z,15.4
2022-08-19T20:01:12.098Z,15.8
2022-08-19T20:03:12.022Z,15.4
2022-08-19T20:05:12.025Z,15.9
2022-08-19T20:07:12.030Z,15.9
2022-08-19T20:09:14.256Z,16.2
2022-08-19T20:11:12.040Z,15.3
2022-08-19T20:13:12.056Z,15.5
2022-08-19T20:15:12.047Z,14.9
2022-08-19T20:17:12.055Z,14.7
2022-08-19T20:19:12.065Z,14.8
2022-08-19T20:21:12.079Z,15.6
2022-08-19T20:23:12.084Z,15.2
2022-08-19T20:25:12.101Z,15.7
2022-08-19T20:27:12.105Z,15
2022-08-19T20:29:13.952Z,15.4
2022-08-19T20:31:12.108Z,14.5
2022-08-19T20:33:12.120Z,14.8
2022-08-19T20:35:12.126Z,14.4
2022-08-19T20:37:12.134Z,16.4
2022-08-19T20:39:12.144Z,16.2
2022-08-19T20:41:12.151Z,15.7
2022-08-19T20:43:12.163Z,16
2022-08-19T20:45:18.025Z,16.7
2022-08-19T20:47:12.176Z,17.5
2022-08-19T20:49:12.182Z,16.1
2022-08-19T20:51:12.195Z,16.2
2022-08-19T20:53:12.196Z,15.5
2022-08-19T20:55:12.209Z,16.3
2022-08-19T20:57:12.210Z,16.2
2022-08-19T20:59:12.220Z,16.1
2022-08-19T21:01:12.296Z,17.4
2022-08-19T21:03:12.222Z,17.3
2022-08-19T21:05:12.244Z,16.6
2022-08-19T21:07:12.240Z,16.5
2022-08-19T21:09:12.247Z,17.3
2022-08-19T21:11:12.258Z,16.2
2022-08-19T21:13:12.269Z,16.4
2022-08-19T21:15:12.273Z,16
2022-08-19T21:17:12.281Z,16.1
2022-08-19T21:19:12.285Z,16.6
2022-08-19T21:21:12.293Z,16.6
2022-08-19T21:23:12.312Z,16.1
2022-08-19T21:25:12.304Z,16.3
2022-08-19T21:27:12.318Z,16.4
2022-08-19T21:29:12.317Z,15.7
2022-08-19T21:31:12.328Z,15.6
2022-08-19T21:33:12.337Z,15.8
2022-08-19T21:35:12.346Z,17
2022-08-19T21:37:12.406Z,16.6
2022-08-19T21:39:12.358Z,16.4
2022-08-19T21:41:12.369Z,16.5
2022-08-19T21:43:12.377Z,16.8
2022-08-19T21:45:12.385Z,17.2
2022-08-19T21:47:12.389Z,17.3
2022-08-19T21:49:12.399Z,17.1
2022-08-19T21:51:12.407Z,17.1
2022-08-19T21:53:13.956Z,16.6
2022-08-19T21:55:12.420Z,16.3
2022-08-19T21:57:12.425Z,16.2
2022-08-19T21:59:12.423Z,16.3
2022-08-19T22:01:12.525Z,16.9
2022-08-19T22:03:12.441Z,15.9
2022-08-19T22:05:12.450Z,16.5
2022-08-19T22:07:12.455Z,14.9
2022-08-19T22:09:12.465Z,15.6
2022-08-19T22:11:12.999Z,16.1
2022-08-19T22:13:12.488Z,15.9
2022-08-19T22:15:12.496Z,16.4
2022-08-19T22:17:12.518Z,16.7
2022-08-19T22:19:12.511Z,16.8
2022-08-19T22:21:12.520Z,16.4
2022-08-19T22:23:12.540Z,16.6
2022-08-19T22:25:12.530Z,16.7
2022-08-19T22:27:12.533Z,17.1
2022-08-19T22:29:15.794Z,17.3
2022-08-19T22:31:12.552Z,17.1
2022-08-19T22:33:12.585Z,17.1
2022-08-19T22:35:12.568Z,17.6
2022-08-19T22:37:12.572Z,17.7
2022-08-19T22:39:12.583Z,17.9
2022-08-19T22:41:12.587Z,18
2022-08-19T22:43:12.598Z,19.3
2022-08-19T22:45:12.627Z,19.4
2022-08-19T22:47:12.611Z,19.3
2022-08-19T22:49:12.616Z,19.2
2022-08-19T22:51:12.618Z,18.1
2022-08-19T22:53:12.632Z,18.6
2022-08-19T22:55:12.633Z,17.4
2022-08-19T22:57:12.639Z,17.9
2022-08-19T22:59:12.644Z,17.7
2022-08-19T23:01:12.992Z,17.3
2022-08-19T23:03:12.654Z,17.8
2022-08-19T23:05:12.666Z,17.6
2022-08-19T23:07:12.670Z,17.6
2022-08-19T23:09:16.554Z,16.5
2022-08-19T23:11:12.686Z,17.8
2022-08-19T23:13:12.689Z,17.5
2022-08-19T23:15:12.703Z,17.8
2022-08-19T23:17:12.703Z,17.4
2022-08-19T23:19:12.712Z,17.5
2022-08-19T23:21:12.722Z,17.3
2022-08-19T23:23:12.728Z,16.5
2022-08-19T23:25:12.738Z,17.6
2022-08-19T23:27:12.741Z,16.8
2022-08-19T23:29:12.740Z,18.2
2022-08-19T23:31:12.753Z,17.8
2022-08-19T23:33:13.061Z,18
2022-08-19T23:35:12.764Z,17.5
2022-08-19T23:37:12.768Z,17.2
2022-08-19T23:39:12.770Z,17.5
2022-08-19T23:41:12.785Z,17.6
2022-08-19T23:43:15.814Z,17.9
2022-08-19T23:45:12.793Z,18.2
2022-08-19T23:47:12.796Z,18.3
2022-08-19T23:49:12.804Z,19
2022-08-19T23:51:12.810Z,18.8
2022-08-19T23:53:13.177Z,17.6
2022-08-19T23:55:12.824Z,18.8
2022-08-19T23:57:13.146Z,18.3
2022-08-19T23:59:12.833Z,18.1
